sensor_id;sensor_type;location;lat;lon;timestamp;temperature;humidity
29803;DHT22;16702;50.898;4.662;2023-02-18T00:02:18;11.90;99.90
29803;DHT22;16702;50.898;4.662;2023-02-18T00:04:48;11.90;99.90
29803;DHT22;16702;50.898;4.662;2023-02-18T00:07:20;11.90;99.90
29803;DHT22;16702;50.898;4.662;2023-02-18T00:09:50;11.90;99.90
29803;DHT22;16702;50.898;4.662;2023-02-18T00:12:20;11.90;99.90
29803;DHT22;16702;50.898;4.662;2023-02-18T00:14:50;12.00;99.90
29803;DHT22;16702;50.898;4.662;2023-02-18T00:17:20;11.90;99.90
29803;DHT22;16702;50.898;4.662;2023-02-18T00:19:50;11.90;99.90
29803;DHT22;16702;50.898;4.662;2023-02-18T00:22:23;11.90;99.90
29803;DHT22;16702;50.898;4.662;2023-02-18T00:24:53;11.90;99.90
29803;DHT22;16702;50.898;4.662;2023-02-18T00:27:23;11.90;99.90
29803;DHT22;16702;50.898;4.662;2023-02-18T00:29:54;12.00;99.90
29803;DHT22;16702;50.898;4.662;2023-02-18T00:32:25;11.90;99.90
29803;DHT22;16702;50.898;4.662;2023-02-18T00:34:55;11.90;99.90
29803;DHT22;16702;50.898;4.662;2023-02-18T00:37:27;11.90;99.90
29803;DHT22;16702;50.898;4.662;2023-02-18T00:40:01;11.90;99.90
29803;DHT22;16702;50.898;4.662;2023-02-18T00:42:31;11.90;99.90
29803;DHT22;16702;50.898;4.662;2023-02-18T00:45:01;11.90;99.90
29803;DHT22;16702;50.898;4.662;2023-02-18T00:47:31;11.90;99.90
29803;DHT22;16702;50.898;4.662;2023-02-18T00:50:01;11.80;99.90
29803;DHT22;16702;50.898;4.662;2023-02-18T00:52:34;11.90;99.90
29803;DHT22;16702;50.898;4.662;2023-02-18T00:55:06;11.90;99.90
29803;DHT22;16702;50.898;4.662;2023-02-18T00:57:36;11.80;99.90
29803;DHT22;16702;50.898;4.662;2023-02-18T01:00:07;11.90;99.90
29803;DHT22;16702;50.898;4.662;2023-02-18T01:02:37;11.90;99.90
29803;DHT22;16702;50.898;4.662;2023-02-18T01:05:08;11.90;99.90
29803;DHT22;16702;50.898;4.662;2023-02-18T01:07:40;11.90;99.90
29803;DHT22;16702;50.898;4.662;2023-02-18T01:10:10;11.90;99.90
29803;DHT22;16702;50.898;4.662;2023-02-18T01:12:40;11.90;99.90
29803;DHT22;16702;50.898;4.662;2023-02-18T01:15:11;11.90;99.90
29803;DHT22;16702;50.898;4.662;2023-02-18T01:17:42;11.80;99.90
29803;DHT22;16702;50.898;4.662;2023-02-18T01:20:13;11.80;99.90
29803;DHT22;16702;50.898;4.662;2023-02-18T01:22:45;11.90;99.90
29803;DHT22;16702;50.898;4.662;2023-02-18T01:25:15;11.90;99.90
29803;DHT22;16702;50.898;4.662;2023-02-18T01:27:45;11.90;99.90
29803;DHT22;16702;50.898;4.662;2023-02-18T01:30:16;11.80;99.90
29803;DHT22;16702;50.898;4.662;2023-02-18T01:32:47;11.80;99.90
29803;DHT22;16702;50.898;4.662;2023-02-18T01:35:17;11.80;99.90
29803;DHT22;16702;50.898;4.662;2023-02-18T01:37:50;11.80;99.90
29803;DHT22;16702;50.898;4.662;2023-02-18T01:40:22;11.80;99.90
29803;DHT22;16702;50.898;4.662;2023-02-18T01:42:53;11.80;99.90
29803;DHT22;16702;50.898;4.662;2023-02-18T01:48:12;11.70;99.90
29803;DHT22;16702;50.898;4.662;2023-02-18T01:50:44;11.80;99.90
29803;DHT22;16702;50.898;4.662;2023-02-18T01:53:19;11.80;99.90
29803;DHT22;16702;50.898;4.662;2023-02-18T01:55:50;11.80;99.90
29803;DHT22;16702;50.898;4.662;2023-02-18T01:58:20;11.80;99.90
29803;DHT22;16702;50.898;4.662;2023-02-18T02:00:50;11.80;99.90
29803;DHT22;16702;50.898;4.662;2023-02-18T02:03:20;11.80;99.90
29803;DHT22;16702;50.898;4.662;2023-02-18T02:05:50;11.80;99.90
29803;DHT22;16702;50.898;4.662;2023-02-18T02:08:23;11.80;99.90
29803;DHT22;16702;50.898;4.662;2023-02-18T02:10:58;11.70;99.90
29803;DHT22;16702;50.898;4.662;2023-02-18T02:13:34;11.70;99.90
29803;DHT22;16702;50.898;4.662;2023-02-18T02:16:09;11.80;99.90
29803;DHT22;16702;50.898;4.662;2023-02-18T02:18:44;11.70;99.90
29803;DHT22;16702;50.898;4.662;2023-02-18T02:21:25;11.80;99.90
29803;DHT22;16702;50.898;4.662;2023-02-18T02:24:16;11.70;99.90
29803;DHT22;16702;50.898;4.662;2023-02-18T02:26:57;11.70;99.90
29803;DHT22;16702;50.898;4.662;2023-02-18T02:35:01;11.70;99.90
29803;DHT22;16702;50.898;4.662;2023-02-18T02:37:33;11.70;99.90
29803;DHT22;16702;50.898;4.662;2023-02-18T02:40:20;11.70;99.90
29803;DHT22;16702;50.898;4.662;2023-02-18T02:42:58;11.70;99.90
29803;DHT22;16702;50.898;4.662;2023-02-18T02:45:36;11.70;99.90
29803;DHT22;16702;50.898;4.662;2023-02-18T02:48:08;11.70;99.90
29803;DHT22;16702;50.898;4.662;2023-02-18T02:50:46;11.70;99.90
29803;DHT22;16702;50.898;4.662;2023-02-18T02:53:20;11.70;99.90
29803;DHT22;16702;50.898;4.662;2023-02-18T02:55:52;11.70;99.90
29803;DHT22;16702;50.898;4.662;2023-02-18T02:58:24;11.70;99.90
29803;DHT22;16702;50.898;4.662;2023-02-18T03:03:46;11.70;99.90
29803;DHT22;16702;50.898;4.662;2023-02-18T03:06:35;11.70;99.90
29803;DHT22;16702;50.898;4.662;2023-02-18T03:09:12;11.60;99.90
29803;DHT22;16702;50.898;4.662;2023-02-18T03:11:46;11.60;99.90
29803;DHT22;16702;50.898;4.662;2023-02-18T03:14:22;11.60;99.90
29803;DHT22;16702;50.898;4.662;2023-02-18T03:16:58;11.60;99.90
29803;DHT22;16702;50.898;4.662;2023-02-18T03:19:30;11.60;99.90
29803;DHT22;16702;50.898;4.662;2023-02-18T03:22:05;11.60;99.90
29803;DHT22;16702;50.898;4.662;2023-02-18T03:24:37;11.60;99.90
29803;DHT22;16702;50.898;4.662;2023-02-18T03:27:10;11.60;99.90
29803;DHT22;16702;50.898;4.662;2023-02-18T03:29:44;11.60;99.90
29803;DHT22;16702;50.898;4.662;2023-02-18T03:32:15;11.60;99.90
29803;DHT22;16702;50.898;4.662;2023-02-18T03:34:48;11.50;99.90
29803;DHT22;16702;50.898;4.662;2023-02-18T03:37:21;11.60;99.90
29803;DHT22;16702;50.898;4.662;2023-02-18T03:39:54;11.60;99.90
29803;DHT22;16702;50.898;4.662;2023-02-18T03:42:26;11.50;99.90
29803;DHT22;16702;50.898;4.662;2023-02-18T03:44:57;11.60;99.90
29803;DHT22;16702;50.898;4.662;2023-02-18T03:47:27;11.50;99.90
29803;DHT22;16702;50.898;4.662;2023-02-18T03:49:58;11.50;99.90
29803;DHT22;16702;50.898;4.662;2023-02-18T03:52:30;11.50;99.90
29803;DHT22;16702;50.898;4.662;2023-02-18T03:55:02;11.40;99.90
29803;DHT22;16702;50.898;4.662;2023-02-18T03:57:32;11.50;99.90
29803;DHT22;16702;50.898;4.662;2023-02-18T04:00:03;11.50;99.90
29803;DHT22;16702;50.898;4.662;2023-02-18T04:02:38;11.40;99.90
29803;DHT22;16702;50.898;4.662;2023-02-18T04:05:09;11.50;99.90
29803;DHT22;16702;50.898;4.662;2023-02-18T04:07:41;11.40;99.90
29803;DHT22;16702;50.898;4.662;2023-02-18T04:10:11;11.50;99.90
29803;DHT22;16702;50.898;4.662;2023-02-18T04:12:41;11.50;99.90
29803;DHT22;16702;50.898;4.662;2023-02-18T04:15:12;11.40;99.90
29803;DHT22;16702;50.898;4.662;2023-02-18T04:17:42;11.40;99.90
29803;DHT22;16702;50.898;4.662;2023-02-18T04:20:12;11.40;99.90
29803;DHT22;16702;50.898;4.662;2023-02-18T04:22:45;11.40;99.90
29803;DHT22;16702;50.898;4.662;2023-02-18T04:25:15;11.50;99.90
29803;DHT22;16702;50.898;4.662;2023-02-18T04:27:45;11.40;99.90
29803;DHT22;16702;50.898;4.662;2023-02-18T04:30:15;11.40;99.90
29803;DHT22;16702;50.898;4.662;2023-02-18T04:32:45;11.40;99.90
29803;DHT22;16702;50.898;4.662;2023-02-18T04:35:15;11.40;99.90
29803;DHT22;16702;50.898;4.662;2023-02-18T04:37:48;11.40;99.90
29803;DHT22;16702;50.898;4.662;2023-02-18T04:40:18;11.40;99.90
29803;DHT22;16702;50.898;4.662;2023-02-18T04:42:51;11.30;99.90
29803;DHT22;16702;50.898;4.662;2023-02-18T04:45:21;11.40;99.90
29803;DHT22;16702;50.898;4.662;2023-02-18T04:47:51;11.40;99.90
29803;DHT22;16702;50.898;4.662;2023-02-18T04:50:21;11.30;99.90
29803;DHT22;16702;50.898;4.662;2023-02-18T04:52:54;11.40;99.90
29803;DHT22;16702;50.898;4.662;2023-02-18T04:55:24;11.40;99.90
29803;DHT22;16702;50.898;4.662;2023-02-18T04:57:54;11.30;99.90
29803;DHT22;16702;50.898;4.662;2023-02-18T05:00:24;11.30;99.90
29803;DHT22;16702;50.898;4.662;2023-02-18T05:02:55;11.40;99.90
29803;DHT22;16702;50.898;4.662;2023-02-18T05:05:25;11.40;99.90
29803;DHT22;16702;50.898;4.662;2023-02-18T05:07:57;11.30;99.90
29803;DHT22;16702;50.898;4.662;2023-02-18T05:10:28;11.20;99.90
29803;DHT22;16702;50.898;4.662;2023-02-18T05:12:58;11.30;99.90
29803;DHT22;16702;50.898;4.662;2023-02-18T05:15:28;11.40;99.90
29803;DHT22;16702;50.898;4.662;2023-02-18T05:17:58;11.30;99.90
29803;DHT22;16702;50.898;4.662;2023-02-18T05:20:28;11.40;99.90
29803;DHT22;16702;50.898;4.662;2023-02-18T05:23:00;11.20;99.90
29803;DHT22;16702;50.898;4.662;2023-02-18T05:25:30;11.20;99.90
29803;DHT22;16702;50.898;4.662;2023-02-18T05:28:00;11.30;99.90
29803;DHT22;16702;50.898;4.662;2023-02-18T05:30:30;11.30;99.90
29803;DHT22;16702;50.898;4.662;2023-02-18T05:33:01;11.30;99.90
29803;DHT22;16702;50.898;4.662;2023-02-18T05:35:31;11.30;99.90
29803;DHT22;16702;50.898;4.662;2023-02-18T05:38:03;11.30;99.90
29803;DHT22;16702;50.898;4.662;2023-02-18T05:40:33;11.20;99.90
29803;DHT22;16702;50.898;4.662;2023-02-18T05:43:03;11.20;99.90
29803;DHT22;16702;50.898;4.662;2023-02-18T05:45:34;11.30;99.90
29803;DHT22;16702;50.898;4.662;2023-02-18T05:48:04;11.10;99.90
29803;DHT22;16702;50.898;4.662;2023-02-18T05:50:34;11.30;99.90
29803;DHT22;16702;50.898;4.662;2023-02-18T05:53:07;11.20;99.90
29803;DHT22;16702;50.898;4.662;2023-02-18T05:55:37;11.10;99.90
29803;DHT22;16702;50.898;4.662;2023-02-18T05:58:07;11.20;99.90
29803;DHT22;16702;50.898;4.662;2023-02-18T06:00:37;11.10;99.90
29803;DHT22;16702;50.898;4.662;2023-02-18T06:03:07;11.10;99.90
29803;DHT22;16702;50.898;4.662;2023-02-18T06:05:37;11.10;99.90
29803;DHT22;16702;50.898;4.662;2023-02-18T06:08:10;11.10;99.90
29803;DHT22;16702;50.898;4.662;2023-02-18T06:10:40;11.10;99.90
29803;DHT22;16702;50.898;4.662;2023-02-18T06:13:10;11.10;99.90
29803;DHT22;16702;50.898;4.662;2023-02-18T06:15:40;11.10;99.90
29803;DHT22;16702;50.898;4.662;2023-02-18T06:18:10;11.10;99.90
29803;DHT22;16702;50.898;4.662;2023-02-18T06:20:40;11.20;99.90
29803;DHT22;16702;50.898;4.662;2023-02-18T06:23:13;11.10;99.90
29803;DHT22;16702;50.898;4.662;2023-02-18T06:25:43;11.00;99.90
29803;DHT22;16702;50.898;4.662;2023-02-18T06:28:13;11.10;99.90
29803;DHT22;16702;50.898;4.662;2023-02-18T06:30:43;11.10;99.90
29803;DHT22;16702;50.898;4.662;2023-02-18T06:33:13;11.10;99.90
29803;DHT22;16702;50.898;4.662;2023-02-18T06:35:51;11.00;99.90
29803;DHT22;16702;50.898;4.662;2023-02-18T06:38:23;11.00;99.90
29803;DHT22;16702;50.898;4.662;2023-02-18T06:40:53;11.00;99.90
29803;DHT22;16702;50.898;4.662;2023-02-18T06:43:24;11.00;99.90
29803;DHT22;16702;50.898;4.662;2023-02-18T06:45:54;11.00;99.90
29803;DHT22;16702;50.898;4.662;2023-02-18T06:48:24;11.00;99.90
29803;DHT22;16702;50.898;4.662;2023-02-18T06:50:54;10.90;99.90
29803;DHT22;16702;50.898;4.662;2023-02-18T06:53:26;11.00;99.90
29803;DHT22;16702;50.898;4.662;2023-02-18T06:55:56;10.90;99.90
29803;DHT22;16702;50.898;4.662;2023-02-18T06:58:26;10.90;99.90
29803;DHT22;16702;50.898;4.662;2023-02-18T07:00:56;10.90;99.90
29803;DHT22;16702;50.898;4.662;2023-02-18T07:03:27;10.90;99.90
29803;DHT22;16702;50.898;4.662;2023-02-18T07:05:58;10.90;99.90
29803;DHT22;16702;50.898;4.662;2023-02-18T07:08:30;10.90;99.90
29803;DHT22;16702;50.898;4.662;2023-02-18T07:11:02;10.90;99.90
29803;DHT22;16702;50.898;4.662;2023-02-18T07:13:32;10.80;99.90
29803;DHT22;16702;50.898;4.662;2023-02-18T07:16:02;10.80;99.90
29803;DHT22;16702;50.898;4.662;2023-02-18T07:18:33;10.90;99.90
29803;DHT22;16702;50.898;4.662;2023-02-18T07:21:03;10.90;99.90
29803;DHT22;16702;50.898;4.662;2023-02-18T07:23:35;10.90;99.90
29803;DHT22;16702;50.898;4.662;2023-02-18T07:26:06;10.80;99.90
29803;DHT22;16702;50.898;4.662;2023-02-18T07:28:36;10.80;99.90
29803;DHT22;16702;50.898;4.662;2023-02-18T07:31:06;10.80;99.90
29803;DHT22;16702;50.898;4.662;2023-02-18T07:33:37;10.80;99.90
29803;DHT22;16702;50.898;4.662;2023-02-18T07:36:07;10.80;99.90
29803;DHT22;16702;50.898;4.662;2023-02-18T07:38:40;10.90;99.90
29803;DHT22;16702;50.898;4.662;2023-02-18T07:41:12;10.90;99.90
29803;DHT22;16702;50.898;4.662;2023-02-18T07:43:45;10.80;99.90
29803;DHT22;16702;50.898;4.662;2023-02-18T07:46:15;10.80;99.90
29803;DHT22;16702;50.898;4.662;2023-02-18T07:48:45;10.70;99.90
29803;DHT22;16702;50.898;4.662;2023-02-18T07:51:15;10.80;99.90
29803;DHT22;16702;50.898;4.662;2023-02-18T07:53:48;10.80;99.90
29803;DHT22;16702;50.898;4.662;2023-02-18T07:56:18;10.80;99.90
29803;DHT22;16702;50.898;4.662;2023-02-18T07:58:48;10.80;99.90
29803;DHT22;16702;50.898;4.662;2023-02-18T08:01:18;10.80;99.90
29803;DHT22;16702;50.898;4.662;2023-02-18T08:03:48;10.80;99.90
29803;DHT22;16702;50.898;4.662;2023-02-18T08:06:19;10.90;99.90
29803;DHT22;16702;50.898;4.662;2023-02-18T08:08:52;10.80;99.90
29803;DHT22;16702;50.898;4.662;2023-02-18T08:11:22;10.80;99.90
29803;DHT22;16702;50.898;4.662;2023-02-18T08:13:52;10.80;99.90
29803;DHT22;16702;50.898;4.662;2023-02-18T08:16:25;10.80;99.90
29803;DHT22;16702;50.898;4.662;2023-02-18T08:18:55;10.90;99.90
29803;DHT22;16702;50.898;4.662;2023-02-18T08:21:26;10.90;99.90
29803;DHT22;16702;50.898;4.662;2023-02-18T08:23:58;10.90;99.90
29803;DHT22;16702;50.898;4.662;2023-02-18T08:26:29;10.90;99.90
29803;DHT22;16702;50.898;4.662;2023-02-18T08:28:59;10.90;99.90
29803;DHT22;16702;50.898;4.662;2023-02-18T08:31:29;10.90;99.90
29803;DHT22;16702;50.898;4.662;2023-02-18T08:33:59;11.00;99.90
29803;DHT22;16702;50.898;4.662;2023-02-18T08:36:30;10.90;99.90
29803;DHT22;16702;50.898;4.662;2023-02-18T08:39:02;10.90;99.90
29803;DHT22;16702;50.898;4.662;2023-02-18T08:41:32;11.00;99.90
29803;DHT22;16702;50.898;4.662;2023-02-18T08:44:03;11.00;99.90
29803;DHT22;16702;50.898;4.662;2023-02-18T08:46:33;11.00;99.90
29803;DHT22;16702;50.898;4.662;2023-02-18T08:49:03;11.00;99.90
29803;DHT22;16702;50.898;4.662;2023-02-18T08:51:34;11.00;99.90
29803;DHT22;16702;50.898;4.662;2023-02-18T08:54:06;11.00;99.90
29803;DHT22;16702;50.898;4.662;2023-02-18T08:56:37;11.00;99.90
29803;DHT22;16702;50.898;4.662;2023-02-18T08:59:08;11.10;99.90
29803;DHT22;16702;50.898;4.662;2023-02-18T09:01:38;11.10;99.90
29803;DHT22;16702;50.898;4.662;2023-02-18T09:04:08;11.10;99.90
29803;DHT22;16702;50.898;4.662;2023-02-18T09:06:38;11.10;99.90
29803;DHT22;16702;50.898;4.662;2023-02-18T09:09:10;11.10;99.90
29803;DHT22;16702;50.898;4.662;2023-02-18T09:11:41;11.10;99.90
29803;DHT22;16702;50.898;4.662;2023-02-18T09:14:11;11.10;99.90
29803;DHT22;16702;50.898;4.662;2023-02-18T09:16:41;11.20;99.90
29803;DHT22;16702;50.898;4.662;2023-02-18T09:19:11;11.20;99.90
29803;DHT22;16702;50.898;4.662;2023-02-18T09:21:41;11.20;99.90
29803;DHT22;16702;50.898;4.662;2023-02-18T09:24:13;11.30;99.90
29803;DHT22;16702;50.898;4.662;2023-02-18T09:26:44;11.20;99.90
29803;DHT22;16702;50.898;4.662;2023-02-18T09:29:14;11.20;99.90
29803;DHT22;16702;50.898;4.662;2023-02-18T09:31:45;11.30;99.90
29803;DHT22;16702;50.898;4.662;2023-02-18T09:34:16;11.40;99.90
29803;DHT22;16702;50.898;4.662;2023-02-18T09:36:46;11.20;99.90
29803;DHT22;16702;50.898;4.662;2023-02-18T09:39:19;11.20;99.90
29803;DHT22;16702;50.898;4.662;2023-02-18T09:41:50;11.20;99.90
29803;DHT22;16702;50.898;4.662;2023-02-18T09:44:22;11.30;99.90
29803;DHT22;16702;50.898;4.662;2023-02-18T09:46:53;11.30;99.90
29803;DHT22;16702;50.898;4.662;2023-02-18T09:49:24;11.30;99.90
29803;DHT22;16702;50.898;4.662;2023-02-18T09:52:05;11.40;99.90
29803;DHT22;16702;50.898;4.662;2023-02-18T09:54:38;11.40;99.90
29803;DHT22;16702;50.898;4.662;2023-02-18T09:57:14;11.40;99.90
29803;DHT22;16702;50.898;4.662;2023-02-18T09:59:53;11.40;99.90
29803;DHT22;16702;50.898;4.662;2023-02-18T10:02:24;11.40;99.90
29803;DHT22;16702;50.898;4.662;2023-02-18T10:04:55;11.30;99.90
29803;DHT22;16702;50.898;4.662;2023-02-18T10:07:26;11.40;99.90
29803;DHT22;16702;50.898;4.662;2023-02-18T10:10:00;11.40;99.90
29803;DHT22;16702;50.898;4.662;2023-02-18T10:12:33;11.40;99.90
29803;DHT22;16702;50.898;4.662;2023-02-18T10:15:06;11.40;99.90
29803;DHT22;16702;50.898;4.662;2023-02-18T10:17:36;11.40;99.90
29803;DHT22;16702;50.898;4.662;2023-02-18T10:20:07;11.50;99.90
29803;DHT22;16702;50.898;4.662;2023-02-18T10:22:37;11.40;99.90
29803;DHT22;16702;50.898;4.662;2023-02-18T10:25:11;11.50;99.90
29803;DHT22;16702;50.898;4.662;2023-02-18T10:27:46;11.40;99.90
29803;DHT22;16702;50.898;4.662;2023-02-18T10:30:21;11.50;99.90
29803;DHT22;16702;50.898;4.662;2023-02-18T10:32:54;11.40;99.90
29803;DHT22;16702;50.898;4.662;2023-02-18T10:35:26;11.40;99.90
29803;DHT22;16702;50.898;4.662;2023-02-18T10:38:01;11.50;99.90
29803;DHT22;16702;50.898;4.662;2023-02-18T10:40:40;11.50;99.90
29803;DHT22;16702;50.898;4.662;2023-02-18T10:43:15;11.50;99.90
29803;DHT22;16702;50.898;4.662;2023-02-18T10:45:48;11.50;99.90
29803;DHT22;16702;50.898;4.662;2023-02-18T10:48:26;11.50;99.90
29803;DHT22;16702;50.898;4.662;2023-02-18T10:51:01;11.40;99.90
29803;DHT22;16702;50.898;4.662;2023-02-18T10:53:35;11.60;99.90
29803;DHT22;16702;50.898;4.662;2023-02-18T10:56:12;11.60;99.90
29803;DHT22;16702;50.898;4.662;2023-02-18T10:59:00;11.60;99.90
29803;DHT22;16702;50.898;4.662;2023-02-18T11:01:30;11.60;99.90
29803;DHT22;16702;50.898;4.662;2023-02-18T11:04:04;11.60;99.90
29803;DHT22;16702;50.898;4.662;2023-02-18T11:06:37;11.60;99.90
29803;DHT22;16702;50.898;4.662;2023-02-18T11:09:15;11.60;99.90
29803;DHT22;16702;50.898;4.662;2023-02-18T11:11:51;11.60;99.90
29803;DHT22;16702;50.898;4.662;2023-02-18T11:14:39;11.60;99.90
29803;DHT22;16702;50.898;4.662;2023-02-18T11:17:14;11.60;99.90
29803;DHT22;16702;50.898;4.662;2023-02-18T11:19:50;11.60;99.90
29803;DHT22;16702;50.898;4.662;2023-02-18T11:22:21;11.60;99.90
29803;DHT22;16702;50.898;4.662;2023-02-18T11:24:55;11.60;99.90
29803;DHT22;16702;50.898;4.662;2023-02-18T11:27:29;11.70;99.90
29803;DHT22;16702;50.898;4.662;2023-02-18T11:30:01;11.60;99.90
29803;DHT22;16702;50.898;4.662;2023-02-18T11:32:33;11.70;99.90
29803;DHT22;16702;50.898;4.662;2023-02-18T11:35:04;11.70;99.90
29803;DHT22;16702;50.898;4.662;2023-02-18T11:37:34;11.70;99.90
29803;DHT22;16702;50.898;4.662;2023-02-18T11:40:06;11.70;99.90
29803;DHT22;16702;50.898;4.662;2023-02-18T11:44:52;11.80;99.90
29803;DHT22;16702;50.898;4.662;2023-02-18T11:47:25;11.80;99.90
29803;DHT22;16702;50.898;4.662;2023-02-18T11:50:05;11.80;99.90
29803;DHT22;16702;50.898;4.662;2023-02-18T11:52:44;11.80;99.90
29803;DHT22;16702;50.898;4.662;2023-02-18T11:55:19;11.80;99.90
29803;DHT22;16702;50.898;4.662;2023-02-18T11:57:55;11.80;99.90
29803;DHT22;16702;50.898;4.662;2023-02-18T12:00:40;11.80;99.90
29803;DHT22;16702;50.898;4.662;2023-02-18T12:03:17;11.80;99.90
29803;DHT22;16702;50.898;4.662;2023-02-18T12:05:51;11.80;99.90
29803;DHT22;16702;50.898;4.662;2023-02-18T12:08:26;11.80;99.90
29803;DHT22;16702;50.898;4.662;2023-02-18T12:11:01;11.80;99.90
29803;DHT22;16702;50.898;4.662;2023-02-18T12:13:37;11.80;99.90
29803;DHT22;16702;50.898;4.662;2023-02-18T12:16:17;11.90;99.90
29803;DHT22;16702;50.898;4.662;2023-02-18T12:18:59;11.80;99.90
29803;DHT22;16702;50.898;4.662;2023-02-18T12:21:38;11.90;99.90
29803;DHT22;16702;50.898;4.662;2023-02-18T12:24:19;11.90;99.90
29803;DHT22;16702;50.898;4.662;2023-02-18T12:27:00;11.90;99.90
29803;DHT22;16702;50.898;4.662;2023-02-18T12:29:45;11.90;99.90
29803;DHT22;16702;50.898;4.662;2023-02-18T12:32:31;11.90;99.90
29803;DHT22;16702;50.898;4.662;2023-02-18T12:38:04;11.90;99.90
29803;DHT22;16702;50.898;4.662;2023-02-18T12:40:59;11.90;99.90
29803;DHT22;16702;50.898;4.662;2023-02-18T12:43:43;12.00;99.90
29803;DHT22;16702;50.898;4.662;2023-02-18T12:46:26;11.90;99.90
29803;DHT22;16702;50.898;4.662;2023-02-18T12:49:19;11.90;99.90
29803;DHT22;16702;50.898;4.662;2023-02-18T12:52:02;11.90;99.90
29803;DHT22;16702;50.898;4.662;2023-02-18T12:57:43;12.00;99.90
29803;DHT22;16702;50.898;4.662;2023-02-18T13:00:38;11.90;99.90
29803;DHT22;16702;50.898;4.662;2023-02-18T13:06:32;12.00;99.90
29803;DHT22;16702;50.898;4.662;2023-02-18T13:09:12;12.00;99.90
29803;DHT22;16702;50.898;4.662;2023-02-18T13:11:51;11.90;99.90
29803;DHT22;16702;50.898;4.662;2023-02-18T13:14:24;11.90;99.90
29803;DHT22;16702;50.898;4.662;2023-02-18T13:16:58;11.80;99.90
29803;DHT22;16702;50.898;4.662;2023-02-18T13:19:32;11.90;99.90
29803;DHT22;16702;50.898;4.662;2023-02-18T13:22:10;11.90;99.90
29803;DHT22;16702;50.898;4.662;2023-02-18T13:24:43;11.90;99.90
29803;DHT22;16702;50.898;4.662;2023-02-18T13:27:19;11.80;99.90
29803;DHT22;16702;50.898;4.662;2023-02-18T13:29:58;11.80;99.90
29803;DHT22;16702;50.898;4.662;2023-02-18T13:32:35;11.70;99.90
29803;DHT22;16702;50.898;4.662;2023-02-18T13:35:15;11.80;99.90
29803;DHT22;16702;50.898;4.662;2023-02-18T13:37:58;11.80;99.90
29803;DHT22;16702;50.898;4.662;2023-02-18T13:40:32;11.80;99.90
29803;DHT22;16702;50.898;4.662;2023-02-18T13:43:17;11.80;99.90
29803;DHT22;16702;50.898;4.662;2023-02-18T13:46:10;11.80;99.90
29803;DHT22;16702;50.898;4.662;2023-02-18T13:48:46;11.80;99.90
29803;DHT22;16702;50.898;4.662;2023-02-18T13:51:28;11.80;99.90
29803;DHT22;16702;50.898;4.662;2023-02-18T13:54:11;11.80;99.90
29803;DHT22;16702;50.898;4.662;2023-02-18T13:56:49;11.70;99.90
29803;DHT22;16702;50.898;4.662;2023-02-18T13:59:32;11.70;99.90
29803;DHT22;16702;50.898;4.662;2023-02-18T14:02:28;11.70;99.90
29803;DHT22;16702;50.898;4.662;2023-02-18T14:05:18;11.70;99.90
29803;DHT22;16702;50.898;4.662;2023-02-18T14:07:50;11.70;99.90
29803;DHT22;16702;50.898;4.662;2023-02-18T14:10:36;11.60;99.90
29803;DHT22;16702;50.898;4.662;2023-02-18T14:13:24;11.70;99.90
29803;DHT22;16702;50.898;4.662;2023-02-18T14:15:57;11.70;99.90
29803;DHT22;16702;50.898;4.662;2023-02-18T14:21:21;11.70;99.90
29803;DHT22;16702;50.898;4.662;2023-02-18T14:24:00;11.70;99.90
29803;DHT22;16702;50.898;4.662;2023-02-18T14:26:42;11.80;99.90
29803;DHT22;16702;50.898;4.662;2023-02-18T14:29:19;11.80;99.90
29803;DHT22;16702;50.898;4.662;2023-02-18T14:31:53;11.70;99.90
29803;DHT22;16702;50.898;4.662;2023-02-18T14:40:57;11.70;99.90
29803;DHT22;16702;50.898;4.662;2023-02-18T14:44:07;11.70;99.90
29803;DHT22;16702;50.898;4.662;2023-02-18T14:46:52;11.70;99.90
29803;DHT22;16702;50.898;4.662;2023-02-18T14:49:38;11.70;99.90
29803;DHT22;16702;50.898;4.662;2023-02-18T14:52:16;11.70;99.90
29803;DHT22;16702;50.898;4.662;2023-02-18T14:54:48;11.80;99.90
29803;DHT22;16702;50.898;4.662;2023-02-18T14:57:21;11.80;99.90
29803;DHT22;16702;50.898;4.662;2023-02-18T14:59:59;11.80;99.90
29803;DHT22;16702;50.898;4.662;2023-02-18T15:02:35;11.90;99.90
29803;DHT22;16702;50.898;4.662;2023-02-18T15:05:13;11.90;99.90
29803;DHT22;16702;50.898;4.662;2023-02-18T15:07:57;11.90;99.90
29803;DHT22;16702;50.898;4.662;2023-02-18T15:10:36;11.80;99.90
29803;DHT22;16702;50.898;4.662;2023-02-18T15:13:13;11.80;99.90
29803;DHT22;16702;50.898;4.662;2023-02-18T15:15:48;11.80;99.90
29803;DHT22;16702;50.898;4.662;2023-02-18T15:18:28;11.80;99.90
29803;DHT22;16702;50.898;4.662;2023-02-18T15:21:00;11.80;99.90
29803;DHT22;16702;50.898;4.662;2023-02-18T15:23:33;11.90;99.90
29803;DHT22;16702;50.898;4.662;2023-02-18T15:26:05;11.80;99.90
29803;DHT22;16702;50.898;4.662;2023-02-18T15:28:42;11.80;99.90
29803;DHT22;16702;50.898;4.662;2023-02-18T15:31:28;11.80;99.90
29803;DHT22;16702;50.898;4.662;2023-02-18T15:33:59;11.90;99.90
29803;DHT22;16702;50.898;4.662;2023-02-18T15:36:31;11.90;99.90
29803;DHT22;16702;50.898;4.662;2023-02-18T15:39:05;11.80;99.90
29803;DHT22;16702;50.898;4.662;2023-02-18T15:41:36;11.90;99.90
29803;DHT22;16702;50.898;4.662;2023-02-18T15:44:06;11.80;99.90
29803;DHT22;16702;50.898;4.662;2023-02-18T15:46:40;11.80;99.90
29803;DHT22;16702;50.898;4.662;2023-02-18T15:49:14;11.80;99.90
29803;DHT22;16702;50.898;4.662;2023-02-18T15:51:48;11.80;99.90
29803;DHT22;16702;50.898;4.662;2023-02-18T15:54:20;11.80;99.90
29803;DHT22;16702;50.898;4.662;2023-02-18T15:56:53;11.80;99.90
29803;DHT22;16702;50.898;4.662;2023-02-18T15:59:26;11.80;99.90
29803;DHT22;16702;50.898;4.662;2023-02-18T16:02:08;11.80;99.90
29803;DHT22;16702;50.898;4.662;2023-02-18T16:04:46;11.80;99.90
29803;DHT22;16702;50.898;4.662;2023-02-18T16:07:21;11.80;99.90
29803;DHT22;16702;50.898;4.662;2023-02-18T16:10:09;11.80;99.90
29803;DHT22;16702;50.898;4.662;2023-02-18T16:12:45;11.70;99.90
29803;DHT22;16702;50.898;4.662;2023-02-18T16:15:22;11.80;99.90
29803;DHT22;16702;50.898;4.662;2023-02-18T16:17:56;11.80;99.90
29803;DHT22;16702;50.898;4.662;2023-02-18T16:20:30;11.70;99.90
29803;DHT22;16702;50.898;4.662;2023-02-18T16:23:08;11.70;99.90
29803;DHT22;16702;50.898;4.662;2023-02-18T16:25:42;11.80;99.90
29803;DHT22;16702;50.898;4.662;2023-02-18T16:28:16;11.80;99.90
29803;DHT22;16702;50.898;4.662;2023-02-18T16:30:51;11.70;99.90
29803;DHT22;16702;50.898;4.662;2023-02-18T16:33:24;11.70;99.90
29803;DHT22;16702;50.898;4.662;2023-02-18T16:35:55;11.90;99.90
29803;DHT22;16702;50.898;4.662;2023-02-18T16:38:26;11.90;99.90
29803;DHT22;16702;50.898;4.662;2023-02-18T16:40:57;11.80;99.90
29803;DHT22;16702;50.898;4.662;2023-02-18T16:43:27;11.80;99.90